createdAt,value
2022-12-26T00:01:00.263Z,2.17
2022-12-26T00:03:30.538Z,2.18
2022-12-26T00:06:00.333Z,2.18
2022-12-26T00:08:28.175Z,2.19
2022-12-26T00:10:55.990Z,2.18
2022-12-26T00:13:37.035Z,2.18
2022-12-26T00:16:10.370Z,1.94
2022-12-26T00:18:38.909Z,2.18
2022-12-26T00:21:09.237Z,2.21
2022-12-26T00:23:37.757Z,1.97
2022-12-26T00:26:06.891Z,2.21
2022-12-26T00:28:35.002Z,2.21
2022-12-26T00:31:05.823Z,2.22
2022-12-26T00:33:35.575Z,2.21
2022-12-26T00:36:04.252Z,2.20
2022-12-26T00:38:33.483Z,2.21
2022-12-26T00:41:01.757Z,2.04
2022-12-26T00:43:29.703Z,2.13
2022-12-26T00:45:57.834Z,2.22
2022-12-26T00:48:26.187Z,2.23
2022-12-26T00:50:54.037Z,1.68
2022-12-26T00:53:22.650Z,2.23
2022-12-26T00:55:52.618Z,2.22
2022-12-26T00:58:20.825Z,2.23
2022-12-26T01:00:49.020Z,2.23
2022-12-26T01:03:18.221Z,2.05
2022-12-26T01:05:49.047Z,2.23
2022-12-26T01:08:23.543Z,2.23
2022-12-26T01:10:54.481Z,2.02
2022-12-26T01:13:22.558Z,2.24
2022-12-26T01:15:51.789Z,2.07
2022-12-26T01:18:20.379Z,2.24
2022-12-26T01:20:48.683Z,2.24
2022-12-26T01:23:17.100Z,2.25
2022-12-26T01:26:16.784Z,2.11
2022-12-26T01:28:34.636Z,2.27
2022-12-26T01:31:04.119Z,2.23
2022-12-26T01:33:32.464Z,2.29
2022-12-26T01:36:00.904Z,2.30
2022-12-26T01:38:29.461Z,2.31
2022-12-26T01:41:11.231Z,2.32
2022-12-26T01:44:08.299Z,2.34
2022-12-26T01:46:40.666Z,2.36
2022-12-26T01:49:14.751Z,2.36
2022-12-26T01:51:46.148Z,2.36
2022-12-26T01:54:40.280Z,2.37
2022-12-26T01:57:05.762Z,2.37
2022-12-26T01:59:39.855Z,2.37
2022-12-26T02:02:08.489Z,2.36
2022-12-26T02:04:58.608Z,2.37
2022-12-26T02:07:27.793Z,2.35
2022-12-26T02:09:56.671Z,2.35
2022-12-26T02:12:36.316Z,2.34
2022-12-26T02:15:11.657Z,2.33
2022-12-26T02:17:40.524Z,2.33
2022-12-26T02:20:19.805Z,2.32
2022-12-26T02:23:32.287Z,2.33
2022-12-26T02:26:40.971Z,2.25
2022-12-26T02:29:50.789Z,2.33
2022-12-26T02:32:27.944Z,2.32
2022-12-26T02:35:04.154Z,2.33
2022-12-26T02:37:48.909Z,2.29
2022-12-26T02:40:28.307Z,2.37
2022-12-26T02:43:00.426Z,2.33
2022-12-26T02:45:55.816Z,2.35
2022-12-26T02:48:36.811Z,2.36
2022-12-26T02:51:34.705Z,2.29
2022-12-26T02:54:27.944Z,2.46
2022-12-26T02:57:22.674Z,2.47
2022-12-26T03:00:15.836Z,2.37
2022-12-26T03:03:08.562Z,2.48
2022-12-26T03:05:59.955Z,2.48
2022-12-26T03:08:49.313Z,2.47
2022-12-26T03:11:35.020Z,2.32
2022-12-26T03:14:12.484Z,2.44
2022-12-26T03:16:57.845Z,2.43
2022-12-26T03:19:29.858Z,2.42
2022-12-26T03:22:22.902Z,2.41
2022-12-26T03:25:04.895Z,2.39
2022-12-26T03:27:33.956Z,2.37
2022-12-26T03:30:19.291Z,2.35
2022-12-26T03:32:49.136Z,2.25
2022-12-26T03:35:16.534Z,2.21
2022-12-26T03:37:54.207Z,2.32
2022-12-26T03:41:14.783Z,2.10
2022-12-26T03:44:10.205Z,2.26
2022-12-26T03:47:10.455Z,2.30
2022-12-26T03:50:03.176Z,2.30
2022-12-26T03:52:58.032Z,1.73
2022-12-26T03:55:53.143Z,2.14
2022-12-26T03:58:44.654Z,2.32
2022-12-26T04:01:35.819Z,2.33
2022-12-26T04:04:20.947Z,2.34
2022-12-26T04:07:12.205Z,2.35
2022-12-26T04:10:03.791Z,2.28
2022-12-26T04:12:52.958Z,2.38
2022-12-26T04:15:43.201Z,2.40
2022-12-26T04:18:33.559Z,2.42
2022-12-26T04:21:34.383Z,2.43
2022-12-26T04:24:27.095Z,2.16
2022-12-26T04:27:18.670Z,2.43
2022-12-26T04:30:05.729Z,2.41
2022-12-26T04:32:56.842Z,2.42
2022-12-26T04:35:54.119Z,2.42
2022-12-26T04:38:43.698Z,2.41
2022-12-26T04:41:30.728Z,2.40
2022-12-26T04:44:04.192Z,2.12
2022-12-26T04:46:36.398Z,2.37
2022-12-26T04:49:24.397Z,2.37
2022-12-26T04:51:53.120Z,2.37
2022-12-26T04:54:20.961Z,2.04
2022-12-26T04:56:48.947Z,2.34
2022-12-26T04:59:17.670Z,2.34
2022-12-26T05:02:04.775Z,2.32
2022-12-26T05:04:50.689Z,2.33
2022-12-26T05:07:39.719Z,2.21
2022-12-26T05:10:10.880Z,2.33
2022-12-26T05:12:38.759Z,2.34
2022-12-26T05:15:07.338Z,2.10
2022-12-26T05:17:54.385Z,2.36
2022-12-26T05:20:39.823Z,2.37
2022-12-26T05:23:34.793Z,2.38
2022-12-26T05:26:20.548Z,2.40
2022-12-26T05:28:54.679Z,1.99
2022-12-26T05:31:22.540Z,2.44
2022-12-26T05:34:06.082Z,2.46
2022-12-26T05:36:38.514Z,2.47
2022-12-26T05:39:06.985Z,2.50
2022-12-26T05:41:34.865Z,2.52
2022-12-26T05:44:02.890Z,2.31
2022-12-26T05:46:31.112Z,2.54
2022-12-26T05:49:00.422Z,2.51
2022-12-26T05:51:28.394Z,2.56
2022-12-26T05:53:56.311Z,2.55
2022-12-26T05:56:24.506Z,2.46
2022-12-26T05:58:55.734Z,2.54
2022-12-26T06:01:24.111Z,2.54
2022-12-26T06:03:54.735Z,2.54
2022-12-26T06:06:25.277Z,2.45
2022-12-26T06:08:54.926Z,2.50
2022-12-26T06:11:24.840Z,2.42
2022-12-26T06:13:53.152Z,2.52
2022-12-26T06:16:21.465Z,2.32
2022-12-26T06:18:49.978Z,2.49
2022-12-26T06:21:19.848Z,2.50
2022-12-26T06:23:50.138Z,2.43
2022-12-26T06:26:18.339Z,2.50
2022-12-26T06:28:47.722Z,2.51
2022-12-26T06:31:18.239Z,2.52
2022-12-26T06:33:46.188Z,1.99
2022-12-26T06:36:18.475Z,2.55
2022-12-26T06:38:47.893Z,2.57
2022-12-26T06:41:17.555Z,2.59
2022-12-26T06:43:46.346Z,2.62
2022-12-26T06:46:16.401Z,2.63
2022-12-26T06:48:44.541Z,2.65
2022-12-26T06:51:14.622Z,2.66
2022-12-26T06:53:43.046Z,2.59
2022-12-26T06:56:16.784Z,2.72
2022-12-26T06:58:44.894Z,2.74
2022-12-26T07:01:15.081Z,2.76
2022-12-26T07:03:50.751Z,2.78
2022-12-26T07:06:24.427Z,2.79
2022-12-26T07:08:53.298Z,2.37
2022-12-26T07:11:24.912Z,2.80
2022-12-26T07:13:53.393Z,2.74
2022-12-26T07:16:21.395Z,2.83
2022-12-26T07:18:49.525Z,2.86
2022-12-26T07:21:17.656Z,2.88
2022-12-26T07:23:46.073Z,2.71
2022-12-26T07:26:14.182Z,2.92
2022-12-26T07:28:43.530Z,2.84
2022-12-26T07:31:16.739Z,2.85
2022-12-26T07:33:44.844Z,2.99
2022-12-26T07:36:12.837Z,3.02
2022-12-26T07:38:40.828Z,3.03
2022-12-26T07:41:22.678Z,3.04
2022-12-26T07:43:52.211Z,3.01
2022-12-26T07:46:20.864Z,3.04
2022-12-26T07:48:49.310Z,2.93
2022-12-26T07:51:17.254Z,3.04
2022-12-26T07:53:45.165Z,3.06
2022-12-26T07:56:13.069Z,3.06
2022-12-26T07:58:41.107Z,3.07
2022-12-26T08:01:10.781Z,2.97
2022-12-26T08:03:39.495Z,3.02
2022-12-26T08:06:07.898Z,3.08
2022-12-26T08:08:35.911Z,3.09
2022-12-26T08:11:05.104Z,3.11
2022-12-26T08:13:33.813Z,2.49
2022-12-26T08:16:06.754Z,3.10
2022-12-26T08:18:36.708Z,3.13
2022-12-26T08:21:04.860Z,3.14
2022-12-26T08:23:32.750Z,3.08
2022-12-26T08:26:00.687Z,3.17
2022-12-26T08:28:28.712Z,3.18
2022-12-26T08:30:56.515Z,3.19
2022-12-26T08:33:24.407Z,3.21
2022-12-26T08:35:54.015Z,3.23
2022-12-26T08:38:21.856Z,3.25
2022-12-26T08:40:56.802Z,3.28
2022-12-26T08:44:03.110Z,3.31
2022-12-26T08:46:13.779Z,3.32
2022-12-26T08:48:42.936Z,3.36
2022-12-26T08:51:15.768Z,3.37
2022-12-26T08:53:44.326Z,3.39
2022-12-26T08:56:15.003Z,3.40
2022-12-26T08:58:44.165Z,3.35
2022-12-26T09:01:16.450Z,3.31
2022-12-26T09:03:45.153Z,3.33
2022-12-26T09:06:15.930Z,3.41
2022-12-26T09:08:44.263Z,3.39
2022-12-26T09:11:14.291Z,3.37
2022-12-26T09:13:43.419Z,3.32
2022-12-26T09:16:14.375Z,3.34
2022-12-26T09:18:42.612Z,3.32
2022-12-26T09:21:12.138Z,3.28
2022-12-26T09:23:42.341Z,3.21
2022-12-26T09:26:13.378Z,3.25
2022-12-26T09:28:42.668Z,3.23
2022-12-26T09:31:14.357Z,3.21
2022-12-26T09:33:42.362Z,3.19
2022-12-26T09:36:15.165Z,3.18
2022-12-26T09:38:45.294Z,3.16
2022-12-26T09:41:27.054Z,2.92
2022-12-26T09:44:04.745Z,3.17
2022-12-26T09:46:35.999Z,3.15
2022-12-26T09:49:11.192Z,3.15
2022-12-26T09:51:43.758Z,3.14
2022-12-26T09:54:20.533Z,3.16
2022-12-26T09:57:06.338Z,3.14
2022-12-26T09:59:46.263Z,3.17
2022-12-26T10:02:20.524Z,3.17
2022-12-26T10:04:49.305Z,3.18
2022-12-26T10:07:25.797Z,3.14
2022-12-26T10:10:04.087Z,3.18
2022-12-26T10:12:47.597Z,3.20
2022-12-26T10:15:29.376Z,3.21
2022-12-26T10:18:05.877Z,3.21
2022-12-26T10:20:44.884Z,3.23
2022-12-26T10:23:32.305Z,3.24
2022-12-26T10:26:11.286Z,3.25
2022-12-26T10:28:44.687Z,3.26
2022-12-26T10:31:18.680Z,3.26
2022-12-26T10:33:52.363Z,3.25
2022-12-26T10:36:30.979Z,3.00
2022-12-26T10:39:00.820Z,3.27
2022-12-26T10:41:36.721Z,3.28
2022-12-26T10:44:04.718Z,3.24
2022-12-26T10:46:52.719Z,3.29
2022-12-26T10:49:24.650Z,3.28
2022-12-26T10:51:55.495Z,3.11
2022-12-26T10:54:23.319Z,3.28
2022-12-26T10:56:54.605Z,3.29
2022-12-26T10:59:24.596Z,3.23
2022-12-26T11:01:52.532Z,3.13
2022-12-26T11:05:11.188Z,3.30
2022-12-26T11:07:14.063Z,3.30
2022-12-26T11:09:46.706Z,3.33
2022-12-26T11:12:26.036Z,2.43
2022-12-26T11:15:00.108Z,3.29
2022-12-26T11:17:30.639Z,3.35
2022-12-26T11:20:22.427Z,3.36
2022-12-26T11:22:50.557Z,3.24
2022-12-26T11:25:21.525Z,3.33
2022-12-26T11:27:53.359Z,3.37
2022-12-26T11:30:30.422Z,3.38
2022-12-26T11:33:26.012Z,3.40
2022-12-26T11:36:12.164Z,3.39
2022-12-26T11:39:00.123Z,3.40
2022-12-26T11:41:39.908Z,3.40
2022-12-26T11:44:25.639Z,3.41
2022-12-26T11:46:58.306Z,3.40
2022-12-26T11:49:31.293Z,3.40
2022-12-26T11:52:01.056Z,3.31
2022-12-26T11:54:37.890Z,3.40
2022-12-26T11:57:22.857Z,3.41
2022-12-26T11:59:54.232Z,3.30
2022-12-26T12:02:28.903Z,3.30
2022-12-26T12:05:01.915Z,3.38
2022-12-26T12:08:04.759Z,3.39
2022-12-26T12:10:56.056Z,3.38
2022-12-26T12:13:46.780Z,3.38
2022-12-26T12:16:32.273Z,3.39
2022-12-26T12:19:14.524Z,3.18
2022-12-26T12:21:45.788Z,3.38
2022-12-26T12:24:40.366Z,3.34
2022-12-26T12:27:18.495Z,3.38
2022-12-26T12:30:02.496Z,3.37
2022-12-26T12:32:43.863Z,3.22
2022-12-26T12:35:30.032Z,3.37
2022-12-26T12:38:15.132Z,3.32
2022-12-26T12:40:52.482Z,3.36
2022-12-26T12:43:28.513Z,3.36
2022-12-26T12:46:06.413Z,3.37
2022-12-26T12:49:11.908Z,3.36
2022-12-26T12:51:47.450Z,3.36
2022-12-26T12:54:50.517Z,3.35
2022-12-26T12:57:26.260Z,3.34
2022-12-26T13:00:04.778Z,3.34
2022-12-26T13:02:39.628Z,3.34
2022-12-26T13:05:24.176Z,2.93
2022-12-26T13:07:56.685Z,3.35
2022-12-26T13:10:29.650Z,3.31
2022-12-26T13:12:59.655Z,3.35
2022-12-26T13:15:33.498Z,3.25
2022-12-26T13:18:06.937Z,3.31
2022-12-26T13:20:42.160Z,3.32
2022-12-26T13:23:35.368Z,3.32
2022-12-26T13:26:11.773Z,3.31
2022-12-26T13:28:51.562Z,3.32
2022-12-26T13:31:19.748Z,3.30
2022-12-26T13:33:47.974Z,3.29
2022-12-26T13:36:45.585Z,3.29
2022-12-26T13:39:35.637Z,2.93
2022-12-26T13:42:38.031Z,3.18
2022-12-26T13:45:47.380Z,3.27
2022-12-26T13:48:57.221Z,2.53
2022-12-26T13:51:45.631Z,3.26
2022-12-26T13:54:16.237Z,3.27
2022-12-26T13:57:27.288Z,3.26
2022-12-26T14:00:12.433Z,3.25
2022-12-26T14:03:19.119Z,3.25
2022-12-26T14:06:28.109Z,3.23
2022-12-26T14:09:10.556Z,3.22
2022-12-26T14:11:53.765Z,3.20
2022-12-26T14:14:34.896Z,3.21
2022-12-26T14:17:16.979Z,3.19
2022-12-26T14:19:53.823Z,3.17
2022-12-26T14:22:29.173Z,3.17
2022-12-26T14:25:09.789Z,3.14
2022-12-26T14:27:45.827Z,2.77
2022-12-26T14:30:23.764Z,3.08
2022-12-26T14:33:19.943Z,3.01
2022-12-26T14:35:58.911Z,2.93
2022-12-26T14:38:38.861Z,2.82
2022-12-26T14:41:09.681Z,3.00
2022-12-26T14:43:38.419Z,3.04
2022-12-26T14:46:47.877Z,3.05
2022-12-26T14:49:22.888Z,2.97
2022-12-26T14:51:51.826Z,3.06
2022-12-26T14:54:36.175Z,3.04
2022-12-26T14:57:33.793Z,2.99
2022-12-26T15:00:30.590Z,3.03
2022-12-26T15:03:39.347Z,3.01
2022-12-26T15:06:44.218Z,2.73
2022-12-26T15:09:25.885Z,2.70
2022-12-26T15:12:11.372Z,2.78
2022-12-26T15:15:30.324Z,2.90
2022-12-26T15:18:28.663Z,2.86
2022-12-26T15:21:39.851Z,2.25
2022-12-26T15:25:17.992Z,2.83
2022-12-26T15:28:15.616Z,2.82
2022-12-26T15:31:07.013Z,2.80
2022-12-26T15:33:41.823Z,2.78
2022-12-26T15:36:22.765Z,2.69
2022-12-26T15:38:57.616Z,2.73
2022-12-26T15:41:35.785Z,2.71
2022-12-26T15:44:20.916Z,2.70
2022-12-26T15:46:55.904Z,2.69
2022-12-26T15:49:58.564Z,2.64
2022-12-26T15:52:38.089Z,2.64
2022-12-26T15:55:40.329Z,2.46
2022-12-26T15:58:19.667Z,2.58
2022-12-26T16:00:50.926Z,2.56
2022-12-26T16:03:30.091Z,2.56
2022-12-26T16:06:08.939Z,2.55
2022-12-26T16:09:19.457Z,2.55
2022-12-26T16:11:54.141Z,2.53
2022-12-26T16:14:31.906Z,2.48
2022-12-26T16:17:20.580Z,2.43
2022-12-26T16:19:52.423Z,2.28
2022-12-26T16:22:47.195Z,2.54
2022-12-26T16:25:21.328Z,2.35
2022-12-26T16:27:51.981Z,2.55
2022-12-26T16:30:22.483Z,2.56
2022-12-26T16:32:51.219Z,2.50
2022-12-26T16:35:23.178Z,2.56
2022-12-26T16:37:52.179Z,2.46
2022-12-26T16:40:28.929Z,2.59
2022-12-26T16:43:23.317Z,2.58
2022-12-26T16:45:54.221Z,2.57
2022-12-26T16:48:24.824Z,2.55
2022-12-26T16:50:55.322Z,2.54
2022-12-26T16:53:25.151Z,1.84
2022-12-26T16:55:58.012Z,2.57
2022-12-26T16:58:28.988Z,2.56
2022-12-26T17:01:07.207Z,2.59
2022-12-26T17:03:49.963Z,2.54
2022-12-26T17:06:30.013Z,2.46
2022-12-26T17:09:00.199Z,2.54
2022-12-26T17:11:32.669Z,2.53
2022-12-26T17:14:01.760Z,2.54
2022-12-26T17:16:31.816Z,2.56
2022-12-26T17:19:12.489Z,2.56
2022-12-26T17:21:40.398Z,2.55
2022-12-26T17:24:22.417Z,2.55
2022-12-26T17:27:11.174Z,2.56
2022-12-26T17:29:58.171Z,2.55
2022-12-26T17:32:39.694Z,2.46
2022-12-26T17:35:12.338Z,2.53
2022-12-26T17:37:40.617Z,2.54
2022-12-26T17:40:21.519Z,2.55
2022-12-26T17:42:53.469Z,2.55
2022-12-26T17:45:23.501Z,2.54
2022-12-26T17:47:52.793Z,2.46
2022-12-26T17:50:21.343Z,2.54
2022-12-26T17:52:49.552Z,2.49
2022-12-26T17:55:21.279Z,2.56
2022-12-26T17:57:50.523Z,2.50
2022-12-26T18:00:20.917Z,2.53
2022-12-26T18:02:49.214Z,2.53
2022-12-26T18:05:17.995Z,2.36
2022-12-26T18:07:47.194Z,2.36
2022-12-26T18:10:19.395Z,2.15
2022-12-26T18:12:47.475Z,2.27
2022-12-26T18:15:17.349Z,2.54
2022-12-26T18:17:45.992Z,2.52
2022-12-26T18:20:18.071Z,2.53
2022-12-26T18:22:47.821Z,2.51
2022-12-26T18:25:17.171Z,2.46
2022-12-26T18:27:45.256Z,2.43
2022-12-26T18:30:18.533Z,2.51
2022-12-26T18:32:47.814Z,2.49
2022-12-26T18:35:16.167Z,2.47
2022-12-26T18:37:48.107Z,2.43
2022-12-26T18:40:27.343Z,2.19
2022-12-26T18:42:55.569Z,2.27
2022-12-26T18:45:25.917Z,2.36
2022-12-26T18:47:53.991Z,2.42
2022-12-26T18:50:22.598Z,2.41
2022-12-26T18:52:53.737Z,2.39
2022-12-26T18:55:22.414Z,2.23
2022-12-26T18:57:50.829Z,2.13
2022-12-26T19:00:20.119Z,2.39
2022-12-26T19:02:50.287Z,2.39
2022-12-26T19:05:19.801Z,2.41
2022-12-26T19:07:48.487Z,2.31
2022-12-26T19:10:17.902Z,2.41
2022-12-26T19:12:45.972Z,2.38
2022-12-26T19:15:14.682Z,2.34
2022-12-26T19:17:43.745Z,2.27
2022-12-26T19:20:19.241Z,2.29
2022-12-26T19:22:47.527Z,2.34
2022-12-26T19:25:16.910Z,2.31
2022-12-26T19:27:45.171Z,2.31
2022-12-26T19:30:14.296Z,2.28
2022-12-26T19:32:43.271Z,2.00
2022-12-26T19:35:13.529Z,2.13
2022-12-26T19:37:41.749Z,2.22
2022-12-26T19:40:11.371Z,2.19
2022-12-26T19:42:39.999Z,2.08
2022-12-26T19:45:10.844Z,2.12
2022-12-26T19:47:38.751Z,1.75
2022-12-26T19:50:08.214Z,1.80
2022-12-26T19:52:39.311Z,2.07
2022-12-26T19:55:11.534Z,2.06
2022-12-26T19:57:39.556Z,1.93
2022-12-26T20:00:09.050Z,2.01
2022-12-26T20:02:37.088Z,1.97
2022-12-26T20:05:06.023Z,1.95
2022-12-26T20:07:34.396Z,1.94
2022-12-26T20:10:04.070Z,1.92
2022-12-26T20:12:31.891Z,1.70
2022-12-26T20:14:59.887Z,1.89
2022-12-26T20:17:28.352Z,1.87
2022-12-26T20:19:56.230Z,1.86
2022-12-26T20:22:24.635Z,1.83
2022-12-26T20:24:52.722Z,1.81
2022-12-26T20:27:21.978Z,1.80
2022-12-26T20:29:49.970Z,1.77
2022-12-26T20:32:17.875Z,1.73
2022-12-26T20:34:45.731Z,1.71
2022-12-26T20:37:13.739Z,1.70
2022-12-26T20:39:41.671Z,1.66
2022-12-26T20:42:09.737Z,1.53
2022-12-26T20:44:41.476Z,1.61
2022-12-26T20:47:09.543Z,1.62
2022-12-26T20:49:37.593Z,1.60
2022-12-26T20:52:05.809Z,1.60
2022-12-26T20:54:33.724Z,1.57
2022-12-26T20:57:01.527Z,1.57
2022-12-26T20:59:29.374Z,1.55
2022-12-26T21:01:58.847Z,1.55
2022-12-26T21:04:26.794Z,1.53
2022-12-26T21:06:54.703Z,1.53
2022-12-26T21:09:22.738Z,1.51
2022-12-26T21:11:50.792Z,1.51
2022-12-26T21:14:20.822Z,1.48
2022-12-26T21:16:51.392Z,1.31
2022-12-26T21:19:21.898Z,1.48
2022-12-26T21:21:52.157Z,1.46
2022-12-26T21:24:23.187Z,1.11
2022-12-26T21:26:51.718Z,1.43
2022-12-26T21:29:23.211Z,1.40
2022-12-26T21:31:51.808Z,1.40
2022-12-26T21:34:23.921Z,1.40
2022-12-26T21:37:10.019Z,1.38
2022-12-26T21:39:38.909Z,1.36
2022-12-26T21:42:08.751Z,1.34
2022-12-26T21:44:37.425Z,1.03
2022-12-26T21:47:08.098Z,1.08
2022-12-26T21:49:38.058Z,1.32
2022-12-26T21:52:06.712Z,1.30
2022-12-26T21:54:52.429Z,1.30
2022-12-26T21:57:21.195Z,1.05
2022-12-26T21:59:58.129Z,1.28
2022-12-26T22:02:59.359Z,1.23
2022-12-26T22:05:29.492Z,1.28
2022-12-26T22:07:59.574Z,1.14
2022-12-26T22:10:53.147Z,1.22
2022-12-26T22:13:23.090Z,1.26
2022-12-26T22:16:05.641Z,1.27
2022-12-26T22:18:37.837Z,1.27
2022-12-26T22:21:08.336Z,1.25
2022-12-26T22:23:36.886Z,1.25
2022-12-26T22:26:06.405Z,1.26
2022-12-26T22:28:35.000Z,1.06
2022-12-26T22:31:03.033Z,1.13
2022-12-26T22:33:31.337Z,1.24
2022-12-26T22:36:06.838Z,1.21
2022-12-26T22:38:34.894Z,1.18
2022-12-26T22:41:02.849Z,1.25
2022-12-26T22:43:31.796Z,1.12
2022-12-26T22:45:59.730Z,1.24
2022-12-26T22:48:27.636Z,0.96
2022-12-26T22:50:56.621Z,1.23
2022-12-26T22:53:27.678Z,1.23
2022-12-26T22:56:01.197Z,1.07
2022-12-26T22:58:29.839Z,1.22
2022-12-26T23:00:58.123Z,1.22
2022-12-26T23:03:27.507Z,0.55
2022-12-26T23:05:56.609Z,1.22
2022-12-26T23:08:28.311Z,1.25
2022-12-26T23:10:57.898Z,1.26
2022-12-26T23:13:26.345Z,1.22
2022-12-26T23:15:58.303Z,1.26
2022-12-26T23:18:51.770Z,1.28
2022-12-26T23:21:42.347Z,1.27
2022-12-26T23:24:16.159Z,1.27
2022-12-26T23:26:46.753Z,1.23
2022-12-26T23:29:34.029Z,1.16
2022-12-26T23:32:02.655Z,1.28
2022-12-26T23:34:30.982Z,1.27
2022-12-26T23:36:58.828Z,1.27
2022-12-26T23:39:28.343Z,1.27
2022-12-26T23:41:56.454Z,1.20
2022-12-26T23:44:24.336Z,1.29
2022-12-26T23:46:52.402Z,1.22
2022-12-26T23:49:20.357Z,1.31
2022-12-26T23:51:48.182Z,1.06
2022-12-26T23:54:16.323Z,1.32
2022-12-26T23:56:45.537Z,1.30
2022-12-26T23:59:13.427Z,1.32
